LTBJ/ADB METAR and TAF weather

Enter ICAO airport designator
Station Type Date Time Source
LTBJ METAR 2020/11/25 22:20 UTC NOAA

LTBJ 252220Z 01008KT CAVOK 10/02 Q1017 NOSIG


Station Type Date Time Source
LTBJ Decoded METAR 2020/11/25 22:20 UTC NOAA

Izmir / Adnan Menderes, Turkey (LTBJ) 38-16N 027-09E 120M
Nov 25, 2020 - 05:20 PM EST / 2020.11.25 2220 UTC
Wind: from the N (010 degrees) at 9 MPH (8 KT):0
Visibility: greater than 7 mile(s):0
Temperature: 50 F (10 C)
Dew Point: 35 F (2 C)
Relative Humidity: 57%
Pressure (altimeter): 30.03 in. Hg (1017 hPa)
ob: LTBJ 252220Z 01008KT CAVOK 10/02 Q1017 NOSIG
cycle: 22

Station Type Date Time Source
LTBJ TAF 2020/11/25 18:03 UTC NOAA

TAF LTBJ 251640Z 2518/2618 35015G28KT CAVOK
BECMG 2615/2618 VRB02KT

Example: see airport list